createdAt,value
2022-10-29T00:01:58.347Z,21.23
2022-10-29T00:04:26.444Z,20.80
2022-10-29T00:06:54.552Z,23.90
2022-10-29T00:09:24.048Z,22.13
2022-10-29T00:11:52.125Z,18.90
2022-10-29T00:14:20.173Z,19.90
2022-10-29T00:16:48.319Z,22.40
2022-10-29T00:19:16.410Z,20.30
2022-10-29T00:21:44.671Z,20.67
2022-10-29T00:24:12.917Z,20.33
2022-10-29T00:26:42.384Z,21.63
2022-10-29T00:29:10.454Z,20.23
2022-10-29T00:31:38.775Z,21.90
2022-10-29T00:34:07.004Z,19.60
2022-10-29T00:36:35.199Z,25.83
2022-10-29T00:39:03.484Z,22.97
2022-10-29T00:41:31.568Z,21.47
2022-10-29T00:44:31.894Z,18.23
2022-10-29T00:47:03.806Z,19.97
2022-10-29T00:49:32.965Z,19.23
2022-10-29T00:52:02.363Z,18.13
2022-10-29T00:54:30.551Z,18.70
2022-10-29T00:57:00.494Z,21.40
2022-10-29T00:59:28.648Z,18.13
2022-10-29T01:01:58.212Z,18.17
2022-10-29T01:04:26.430Z,19.40
2022-10-29T01:06:54.484Z,20.13
2022-10-29T01:09:22.524Z,17.53
2022-10-29T01:11:57.422Z,25.00
2022-10-29T01:14:30.674Z,18.97
2022-10-29T01:17:04.200Z,21.03
2022-10-29T01:19:47.616Z,15.70
2022-10-29T01:22:17.186Z,15.53
2022-10-29T01:25:04.678Z,15.00
2022-10-29T01:27:58.145Z,16.23
2022-10-29T01:30:51.549Z,15.93
2022-10-29T01:33:23.575Z,14.63
2022-10-29T01:35:53.593Z,15.67
2022-10-29T01:38:25.810Z,15.73
2022-10-29T01:40:58.038Z,13.47
2022-10-29T01:43:27.995Z,14.57
2022-10-29T01:45:57.466Z,16.67
2022-10-29T01:48:32.251Z,14.93
2022-10-29T01:51:03.825Z,14.77
2022-10-29T01:53:31.930Z,19.43
2022-10-29T01:56:00.003Z,19.20
2022-10-29T01:58:28.159Z,20.20
2022-10-29T02:00:59.754Z,22.13
2022-10-29T02:03:34.853Z,19.37
2022-10-29T02:06:06.365Z,18.53
2022-10-29T02:08:38.295Z,16.70
2022-10-29T02:11:10.457Z,16.27
2022-10-29T02:13:41.611Z,18.57
2022-10-29T02:16:09.713Z,15.90
2022-10-29T02:18:43.495Z,16.10
2022-10-29T02:21:11.701Z,16.03
2022-10-29T02:23:39.773Z,17.37
2022-10-29T02:26:07.856Z,16.73
2022-10-29T02:28:36.079Z,14.90
2022-10-29T02:31:04.137Z,12.90
2022-10-29T02:33:32.227Z,13.97
2022-10-29T02:36:01.758Z,14.30
2022-10-29T02:38:29.804Z,14.37
2022-10-29T02:40:57.899Z,15.60
2022-10-29T02:43:25.995Z,14.60
2022-10-29T02:46:15.149Z,16.37
2022-10-29T02:48:43.338Z,16.00
2022-10-29T02:51:12.877Z,14.17
2022-10-29T02:53:40.978Z,14.57
2022-10-29T02:56:09.302Z,14.40
2022-10-29T02:58:37.679Z,13.60
2022-10-29T03:01:07.018Z,17.33
2022-10-29T03:03:35.143Z,14.73
2022-10-29T03:06:03.337Z,16.40
2022-10-29T03:08:32.759Z,17.13
2022-10-29T03:11:00.862Z,11.90
2022-10-29T03:13:28.991Z,14.20
2022-10-29T03:15:57.166Z,17.20
2022-10-29T03:18:25.348Z,16.23
2022-10-29T03:20:53.448Z,14.53
2022-10-29T03:23:22.188Z,15.73
2022-10-29T03:25:55.850Z,17.27
2022-10-29T03:28:25.029Z,14.90
2022-10-29T03:30:53.243Z,15.80
2022-10-29T03:33:21.540Z,15.80
2022-10-29T03:35:49.625Z,14.10
2022-10-29T03:38:17.772Z,13.80
2022-10-29T03:40:45.843Z,15.47
2022-10-29T03:43:15.316Z,11.33
2022-10-29T03:45:43.492Z,9.90
2022-10-29T03:48:11.544Z,11.03
2022-10-29T03:50:39.648Z,10.40
2022-10-29T03:53:07.728Z,9.23
2022-10-29T03:55:35.831Z,8.70
2022-10-29T03:58:03.930Z,11.07
2022-10-29T04:00:33.423Z,13.33
2022-10-29T04:03:01.619Z,11.53
2022-10-29T04:05:29.771Z,9.53
2022-10-29T04:07:57.944Z,9.80
2022-10-29T04:10:26.905Z,9.30
2022-10-29T04:12:55.199Z,10.20
2022-10-29T04:15:23.505Z,10.37
2022-10-29T04:17:53.407Z,12.13
2022-10-29T04:20:43.458Z,12.20
2022-10-29T04:27:31.356Z,12.53
2022-10-29T04:28:49.143Z,11.77
2022-10-29T04:31:17.416Z,12.50
2022-10-29T04:33:47.237Z,16.77
2022-10-29T04:36:15.318Z,13.27
2022-10-29T04:38:43.390Z,12.60
2022-10-29T04:41:11.467Z,15.30
2022-10-29T04:43:39.595Z,13.30
2022-10-29T04:46:07.680Z,14.43
2022-10-29T04:48:35.927Z,16.30
2022-10-29T04:51:05.859Z,15.10
2022-10-29T04:53:33.947Z,14.13
2022-10-29T04:56:02.325Z,14.87
2022-10-29T04:58:30.459Z,18.67
2022-10-29T05:01:03.054Z,16.37
2022-10-29T05:03:31.280Z,19.10
2022-10-29T05:05:59.594Z,18.10
2022-10-29T05:08:29.096Z,21.67
2022-10-29T05:10:57.289Z,21.07
2022-10-29T05:13:25.411Z,21.37
2022-10-29T05:15:53.802Z,22.13
2022-10-29T05:18:21.957Z,22.47
2022-10-29T05:20:50.028Z,17.07
2022-10-29T05:23:18.220Z,21.30
2022-10-29T05:25:49.269Z,22.03
2022-10-29T05:28:19.329Z,17.03
2022-10-29T05:30:47.499Z,19.37
2022-10-29T05:33:16.806Z,17.03
2022-10-29T05:35:44.906Z,21.03
2022-10-29T05:38:13.590Z,20.33
2022-10-29T05:40:42.846Z,16.23
2022-10-29T05:43:12.371Z,19.83
2022-10-29T05:45:40.593Z,20.80
2022-10-29T05:48:08.911Z,22.27
2022-10-29T05:50:37.303Z,21.10
2022-10-29T05:53:06.164Z,28.70
2022-10-29T05:55:35.018Z,21.83
2022-10-29T05:58:04.600Z,23.33
2022-10-29T06:00:34.950Z,27.40
2022-10-29T06:03:03.085Z,22.93
2022-10-29T06:05:31.245Z,25.80
2022-10-29T06:08:00.308Z,24.07
2022-10-29T06:10:29.897Z,22.57
2022-10-29T06:12:57.986Z,23.20
2022-10-29T06:15:26.191Z,23.93
2022-10-29T06:17:55.937Z,21.47
2022-10-29T06:20:24.367Z,19.53
2022-10-29T06:22:58.085Z,18.40
2022-10-29T06:25:26.532Z,15.23
2022-10-29T06:28:02.019Z,16.67
2022-10-29T06:30:30.348Z,15.90
2022-10-29T06:33:00.082Z,14.47
2022-10-29T06:35:28.328Z,15.90
2022-10-29T06:37:56.776Z,15.43
2022-10-29T06:40:25.207Z,16.07
2022-10-29T06:43:00.115Z,15.93
2022-10-29T06:45:28.356Z,17.00
2022-10-29T06:47:56.850Z,15.67
2022-10-29T06:50:26.583Z,15.67
2022-10-29T06:52:56.546Z,14.60
2022-10-29T06:55:24.790Z,14.87
2022-10-29T06:57:58.305Z,16.60
2022-10-29T07:00:26.586Z,12.73
2022-10-29T07:02:55.000Z,13.33
2022-10-29T07:05:23.446Z,15.40
2022-10-29T07:07:55.649Z,13.33
2022-10-29T07:10:24.054Z,11.80
2022-10-29T07:12:52.134Z,13.23
2022-10-29T07:15:23.005Z,16.70
2022-10-29T07:17:58.105Z,12.97
2022-10-29T07:20:26.754Z,14.87
2022-10-29T07:22:57.735Z,15.77
2022-10-29T07:25:25.977Z,13.80
2022-10-29T07:27:54.364Z,13.23
2022-10-29T07:30:22.646Z,13.87
2022-10-29T07:32:50.700Z,18.20
2022-10-29T07:35:18.796Z,14.03
2022-10-29T07:37:46.870Z,15.73
2022-10-29T07:40:16.660Z,17.80
2022-10-29T07:42:44.700Z,14.40
2022-10-29T07:45:12.834Z,16.63
2022-10-29T07:47:42.936Z,16.43
2022-10-29T07:50:11.391Z,15.60
2022-10-29T07:52:39.939Z,13.93
2022-10-29T07:55:08.580Z,15.30
2022-10-29T07:57:38.072Z,17.07
2022-10-29T08:00:07.264Z,15.93
2022-10-29T08:02:35.345Z,14.73
2022-10-29T08:05:03.688Z,14.37
2022-10-29T08:07:31.769Z,16.63
2022-10-29T08:09:59.963Z,14.10
2022-10-29T08:12:28.111Z,16.53
2022-10-29T08:14:57.666Z,12.77
2022-10-29T08:17:25.708Z,14.50
2022-10-29T08:19:53.947Z,17.43
2022-10-29T08:22:22.187Z,16.23
2022-10-29T08:24:50.533Z,15.23
2022-10-29T08:27:18.639Z,15.53
2022-10-29T08:29:46.803Z,16.67
2022-10-29T08:32:16.345Z,18.13
2022-10-29T08:34:44.461Z,14.27
2022-10-29T08:37:12.552Z,13.33
2022-10-29T08:39:40.772Z,14.73
2022-10-29T08:42:15.318Z,14.07
2022-10-29T08:45:08.242Z,16.43
2022-10-29T08:47:44.162Z,14.43
2022-10-29T08:50:16.155Z,12.13
2022-10-29T08:52:52.991Z,13.33
2022-10-29T08:55:36.072Z,14.17
2022-10-29T08:58:10.354Z,13.67
2022-10-29T09:00:38.809Z,9.93
2022-10-29T09:03:10.876Z,12.23
2022-10-29T09:05:48.208Z,13.30
2022-10-29T09:08:24.978Z,11.03
2022-10-29T09:10:54.865Z,11.60
2022-10-29T09:13:39.151Z,12.80
2022-10-29T09:16:26.830Z,12.40
2022-10-29T09:19:04.829Z,11.57
2022-10-29T09:21:35.091Z,12.20
2022-10-29T09:24:09.772Z,13.10
2022-10-29T09:26:42.360Z,11.93
2022-10-29T09:29:30.047Z,13.30
2022-10-29T09:32:00.690Z,13.10
2022-10-29T09:34:32.599Z,10.53
2022-10-29T09:37:00.763Z,12.13
2022-10-29T09:39:34.118Z,11.40
2022-10-29T09:42:03.122Z,12.23
2022-10-29T09:44:36.965Z,10.93
2022-10-29T09:47:09.840Z,8.43
2022-10-29T09:49:46.738Z,9.83
2022-10-29T09:52:16.575Z,9.83
2022-10-29T09:54:44.743Z,9.57
2022-10-29T09:57:16.888Z,13.20
2022-10-29T09:59:47.443Z,11.03
2022-10-29T10:02:28.489Z,9.10
2022-10-29T10:04:58.810Z,11.17
2022-10-29T10:07:27.575Z,8.47
2022-10-29T10:09:57.109Z,11.87
2022-10-29T10:12:26.576Z,17.90
2022-10-29T10:15:08.964Z,11.30
2022-10-29T10:17:56.845Z,12.67
2022-10-29T10:20:45.576Z,12.40
2022-10-29T10:23:44.314Z,12.03
2022-10-29T10:26:33.162Z,10.43
2022-10-29T10:29:11.451Z,14.07
2022-10-29T10:31:39.703Z,14.07
2022-10-29T10:34:10.995Z,10.83
2022-10-29T10:36:42.491Z,11.93
2022-10-29T10:39:21.129Z,10.43
2022-10-29T10:41:50.238Z,11.90
2022-10-29T10:44:18.441Z,13.23
2022-10-29T10:46:46.507Z,12.47
2022-10-29T10:49:16.396Z,11.40
2022-10-29T10:51:46.585Z,11.20
2022-10-29T10:54:27.944Z,8.83
2022-10-29T10:56:58.791Z,13.67
2022-10-29T10:59:28.088Z,15.13
2022-10-29T11:01:56.199Z,9.77
2022-10-29T11:04:28.185Z,13.07
2022-10-29T11:06:59.176Z,13.07
2022-10-29T11:09:28.384Z,13.90
2022-10-29T11:11:59.135Z,9.80
2022-10-29T11:14:28.664Z,8.73
2022-10-29T11:16:57.315Z,9.60
2022-10-29T11:19:30.301Z,10.57
2022-10-29T11:22:08.955Z,12.00
2022-10-29T11:24:42.696Z,13.77
2022-10-29T11:27:20.690Z,10.63
2022-10-29T11:29:51.802Z,9.33
2022-10-29T11:32:22.068Z,10.53
2022-10-29T11:34:52.881Z,11.13
2022-10-29T11:37:26.944Z,10.00
2022-10-29T11:39:58.064Z,7.03
2022-10-29T11:42:26.677Z,9.30
2022-10-29T11:44:54.787Z,13.40
2022-10-29T11:47:31.944Z,8.63
2022-10-29T11:50:11.310Z,10.33
2022-10-29T11:52:44.197Z,8.90
2022-10-29T11:55:25.005Z,9.97
2022-10-29T11:57:54.823Z,7.40
2022-10-29T12:00:23.928Z,9.57
2022-10-29T12:03:08.366Z,8.80
2022-10-29T12:05:38.993Z,9.43
2022-10-29T12:08:19.699Z,8.00
2022-10-29T12:10:50.822Z,12.03
2022-10-29T12:13:33.265Z,7.43
2022-10-29T12:16:11.480Z,6.73
2022-10-29T12:18:43.614Z,13.17
2022-10-29T12:21:16.220Z,8.87
2022-10-29T12:23:51.437Z,10.63
2022-10-29T12:26:21.802Z,9.27
2022-10-29T12:28:52.714Z,9.90
2022-10-29T12:31:25.535Z,8.13
2022-10-29T12:33:56.822Z,13.60
2022-10-29T12:36:29.863Z,7.97
2022-10-29T12:38:59.310Z,9.10
2022-10-29T12:41:28.034Z,7.80
2022-10-29T12:44:00.435Z,7.67
2022-10-29T12:46:32.902Z,10.50
2022-10-29T12:49:05.287Z,9.97
2022-10-29T12:51:36.897Z,9.90
2022-10-29T12:54:29.864Z,11.23
2022-10-29T12:57:00.878Z,7.70
2022-10-29T12:59:34.411Z,8.20
2022-10-29T13:02:26.527Z,8.13
2022-10-29T13:05:37.756Z,8.67
2022-10-29T13:08:33.854Z,8.70
2022-10-29T13:11:03.395Z,11.50
2022-10-29T13:13:59.861Z,8.80
2022-10-29T13:16:29.744Z,8.90
2022-10-29T13:19:19.537Z,10.80
2022-10-29T13:22:01.036Z,8.63
2022-10-29T13:24:29.478Z,10.27
2022-10-29T13:27:03.713Z,8.73
2022-10-29T13:29:45.513Z,9.37
2022-10-29T13:32:32.985Z,11.80
2022-10-29T13:35:01.551Z,11.40
2022-10-29T13:38:12.522Z,8.17
2022-10-29T13:41:14.170Z,10.87
2022-10-29T13:43:44.425Z,7.47
2022-10-29T13:46:33.352Z,9.80
2022-10-29T13:49:03.321Z,9.50
2022-10-29T13:51:43.096Z,9.00
2022-10-29T13:54:17.460Z,9.00
2022-10-29T13:56:47.779Z,9.67
2022-10-29T13:59:22.141Z,9.93
2022-10-29T14:02:01.928Z,12.03
2022-10-29T14:04:32.788Z,9.20
2022-10-29T14:07:00.933Z,9.53
2022-10-29T14:09:34.449Z,9.30
2022-10-29T14:12:04.277Z,10.57
2022-10-29T14:14:34.909Z,9.10
2022-10-29T14:17:13.149Z,8.70
2022-10-29T14:19:46.309Z,11.90
2022-10-29T14:22:23.270Z,10.57
2022-10-29T14:24:51.365Z,10.43
2022-10-29T14:27:19.440Z,9.17
2022-10-29T14:29:51.708Z,12.00
2022-10-29T14:32:22.778Z,10.47
2022-10-29T14:34:51.062Z,13.03
2022-10-29T14:37:20.363Z,10.87
2022-10-29T14:39:58.072Z,9.23
2022-10-29T14:42:30.908Z,12.57
2022-10-29T14:45:01.295Z,12.77
2022-10-29T14:47:33.263Z,11.57
2022-10-29T14:50:02.915Z,16.13
2022-10-29T14:52:32.132Z,14.87
2022-10-29T14:55:01.221Z,19.10
2022-10-29T14:57:30.394Z,15.73
2022-10-29T15:00:00.520Z,15.20
2022-10-29T15:02:38.126Z,15.33
2022-10-29T15:05:21.549Z,15.50
2022-10-29T15:07:49.739Z,17.70
2022-10-29T15:10:20.217Z,17.60
2022-10-29T15:12:48.590Z,13.53
2022-10-29T15:15:29.389Z,14.77
2022-10-29T15:18:00.972Z,13.53
2022-10-29T15:20:32.694Z,17.00
2022-10-29T15:23:00.814Z,17.57
2022-10-29T15:25:30.888Z,15.30
2022-10-29T15:27:59.392Z,13.13
2022-10-29T15:30:33.410Z,13.67
2022-10-29T15:33:01.691Z,16.13
2022-10-29T15:35:29.865Z,17.60
2022-10-29T15:37:57.990Z,15.00
2022-10-29T15:40:26.440Z,17.00
2022-10-29T15:42:55.136Z,14.87
2022-10-29T15:45:27.336Z,13.63
2022-10-29T15:48:19.990Z,14.30
2022-10-29T15:50:48.219Z,13.80
2022-10-29T15:53:17.197Z,18.63
2022-10-29T15:55:45.399Z,15.47
2022-10-29T15:58:14.734Z,16.73
2022-10-29T16:00:42.951Z,16.03
2022-10-29T16:03:15.995Z,16.40
2022-10-29T16:05:44.494Z,16.43
2022-10-29T16:08:20.216Z,19.63
2022-10-29T16:10:48.419Z,18.40
2022-10-29T16:13:16.489Z,18.70
2022-10-29T16:15:44.726Z,18.87
2022-10-29T16:18:14.326Z,20.10
2022-10-29T16:20:42.468Z,21.67
2022-10-29T16:23:11.013Z,22.30
2022-10-29T16:25:39.432Z,19.80
2022-10-29T16:28:07.621Z,20.27
2022-10-29T16:30:35.751Z,18.10
2022-10-29T16:33:03.944Z,27.93
2022-10-29T16:35:33.530Z,21.87
2022-10-29T16:38:02.157Z,21.73
2022-10-29T16:40:30.729Z,23.67
2022-10-29T16:42:59.404Z,23.10
2022-10-29T16:45:29.988Z,21.07
2022-10-29T16:47:58.476Z,18.43
2022-10-29T16:50:27.993Z,20.70
2022-10-29T16:53:00.755Z,18.77
2022-10-29T16:55:29.245Z,17.90
2022-10-29T16:57:57.626Z,17.57
2022-10-29T17:00:27.002Z,19.80
2022-10-29T17:02:55.536Z,16.40
2022-10-29T17:05:23.902Z,20.50
2022-10-29T17:07:54.563Z,17.40
2022-10-29T17:10:24.168Z,17.23
2022-10-29T17:12:52.327Z,17.73
2022-10-29T17:15:20.578Z,20.87
2022-10-29T17:17:48.839Z,18.90
2022-10-29T17:20:17.241Z,17.87
2022-10-29T17:22:45.450Z,22.03
2022-10-29T17:25:13.720Z,18.63
2022-10-29T17:27:43.362Z,17.07
2022-10-29T17:30:12.038Z,18.33
2022-10-29T17:32:40.240Z,17.03
2022-10-29T17:35:10.101Z,20.60
2022-10-29T17:37:38.230Z,20.47
2022-10-29T17:40:08.419Z,19.43
2022-10-29T17:42:36.743Z,20.50
2022-10-29T17:45:07.347Z,19.57
2022-10-29T17:47:35.664Z,19.77
2022-10-29T17:50:03.903Z,21.00
2022-10-29T17:52:32.075Z,25.67
2022-10-29T17:55:00.252Z,19.80
2022-10-29T17:57:28.384Z,22.30
2022-10-29T17:59:56.628Z,21.90
2022-10-29T18:02:26.328Z,19.33
2022-10-29T18:04:54.585Z,20.70
2022-10-29T18:07:22.776Z,19.43
2022-10-29T18:09:50.990Z,20.03
2022-10-29T18:12:19.180Z,20.90
2022-10-29T18:14:47.422Z,21.00
2022-10-29T18:17:15.509Z,21.03
2022-10-29T18:19:45.393Z,20.03
2022-10-29T18:22:13.658Z,20.97
2022-10-29T18:24:41.929Z,21.40
2022-10-29T18:27:10.274Z,24.10
2022-10-29T18:29:38.359Z,21.17
2022-10-29T18:32:06.984Z,21.67
2022-10-29T18:34:36.424Z,22.17
2022-10-29T18:37:06.714Z,19.97
2022-10-29T18:39:35.038Z,20.63
2022-10-29T18:42:03.273Z,20.83
2022-10-29T18:44:31.723Z,21.93
2022-10-29T18:46:59.858Z,20.43
2022-10-29T18:49:28.135Z,20.87
2022-10-29T18:51:56.348Z,22.50
2022-10-29T18:54:26.003Z,23.17
2022-10-29T18:56:54.344Z,22.77
2022-10-29T18:59:22.695Z,23.27
2022-10-29T19:01:51.076Z,26.57
2022-10-29T19:04:19.249Z,27.23
2022-10-29T19:06:47.598Z,25.10
2022-10-29T19:09:15.752Z,27.27
2022-10-29T19:11:45.197Z,26.90
2022-10-29T19:14:14.073Z,26.03
2022-10-29T19:16:42.251Z,29.33
2022-10-29T19:19:11.950Z,25.70
2022-10-29T19:21:40.544Z,27.13
2022-10-29T19:24:09.542Z,25.67
2022-10-29T19:26:37.679Z,26.73
2022-10-29T19:29:07.775Z,28.83
2022-10-29T19:31:36.766Z,30.50
2022-10-29T19:34:06.519Z,36.90
2022-10-29T19:36:35.667Z,33.67
2022-10-29T19:39:04.033Z,36.47
2022-10-29T19:41:32.318Z,34.37
2022-10-29T19:44:01.477Z,38.17
2022-10-29T19:46:31.091Z,35.17
2022-10-29T19:48:59.501Z,34.13
2022-10-29T19:51:27.825Z,32.07
2022-10-29T19:53:58.058Z,32.23
2022-10-29T19:56:26.261Z,31.57
2022-10-29T19:58:54.582Z,29.33
2022-10-29T20:01:22.823Z,31.43
2022-10-29T20:03:52.540Z,28.43
2022-10-29T20:06:21.584Z,30.80
2022-10-29T20:08:49.822Z,27.60
2022-10-29T20:11:18.052Z,29.73
2022-10-29T20:13:46.726Z,31.23
2022-10-29T20:16:16.561Z,29.47
2022-10-29T20:18:44.921Z,27.57
2022-10-29T20:21:14.808Z,28.47
2022-10-29T20:23:43.242Z,29.17
2022-10-29T20:26:11.466Z,26.53
2022-10-29T20:28:39.652Z,23.83
2022-10-29T20:31:30.382Z,26.13
2022-10-29T20:33:59.536Z,25.70
2022-10-29T20:36:30.979Z,26.77
2022-10-29T20:38:59.554Z,24.63
2022-10-29T20:41:27.945Z,26.30
2022-10-29T20:43:56.827Z,27.77
2022-10-29T20:46:25.067Z,27.93
2022-10-29T20:48:53.155Z,29.07
2022-10-29T20:51:22.879Z,31.10
2022-10-29T20:53:52.574Z,31.77
2022-10-29T20:56:20.716Z,38.63
2022-10-29T20:58:48.944Z,36.27
2022-10-29T21:01:18.854Z,34.20
2022-10-29T21:03:47.611Z,31.57
2022-10-29T21:06:17.534Z,34.03
2022-10-29T21:08:46.079Z,28.00
2022-10-29T21:11:16.722Z,30.30
2022-10-29T21:13:44.943Z,26.90
2022-10-29T21:16:16.637Z,32.17
2022-10-29T21:18:45.646Z,29.53
2022-10-29T21:21:13.743Z,25.47
2022-10-29T21:23:41.810Z,24.40
2022-10-29T21:26:12.000Z,25.07
2022-10-29T21:28:41.628Z,23.93
2022-10-29T21:31:09.687Z,28.20
2022-10-29T21:33:37.756Z,25.10
2022-10-29T21:36:06.006Z,25.37
2022-10-29T21:38:34.241Z,22.87
2022-10-29T21:41:02.329Z,24.00
2022-10-29T21:43:30.482Z,21.23
2022-10-29T21:46:00.007Z,22.83
2022-10-29T21:48:28.339Z,22.83
2022-10-29T21:51:00.908Z,23.37
2022-10-29T21:53:29.034Z,24.50
2022-10-29T21:55:57.576Z,24.33
2022-10-29T21:58:25.689Z,23.00
2022-10-29T22:00:53.908Z,26.13
2022-10-29T22:03:23.353Z,26.43
2022-10-29T22:05:51.510Z,24.30
2022-10-29T22:08:19.628Z,26.20
2022-10-29T22:10:47.819Z,26.53
2022-10-29T22:13:15.863Z,32.73
2022-10-29T22:15:46.024Z,25.67
2022-10-29T22:18:14.143Z,27.97
2022-10-29T22:20:43.619Z,28.33
2022-10-29T22:23:11.801Z,25.83
2022-10-29T22:25:39.890Z,28.30
2022-10-29T22:28:07.923Z,28.80
2022-10-29T22:30:36.052Z,28.77
2022-10-29T22:33:04.120Z,30.30
2022-10-29T22:35:32.215Z,29.87
2022-10-29T22:38:01.675Z,29.67
2022-10-29T22:40:29.786Z,30.23
2022-10-29T22:42:58.186Z,30.83
2022-10-29T22:45:26.448Z,35.27
2022-10-29T22:47:54.492Z,34.23
2022-10-29T22:50:22.595Z,31.80
2022-10-29T22:52:50.694Z,32.30
2022-10-29T22:55:20.139Z,33.50
2022-10-29T22:57:48.209Z,33.47
2022-10-29T23:00:16.563Z,33.13
2022-10-29T23:02:44.663Z,34.20
2022-10-29T23:05:12.859Z,33.00
2022-10-29T23:07:40.954Z,35.97
2022-10-29T23:10:09.677Z,33.77
2022-10-29T23:12:39.328Z,37.07
2022-10-29T23:15:08.777Z,32.07
2022-10-29T23:17:36.873Z,32.73
2022-10-29T23:20:05.494Z,32.07
2022-10-29T23:22:33.538Z,35.63
2022-10-29T23:25:01.622Z,39.00
2022-10-29T23:27:29.663Z,34.37
2022-10-29T23:29:59.244Z,41.43
2022-10-29T23:32:27.283Z,39.30
2022-10-29T23:34:55.447Z,37.20
2022-10-29T23:37:23.560Z,32.20
2022-10-29T23:39:51.623Z,31.70
2022-10-29T23:42:19.690Z,36.67
2022-10-29T23:44:47.759Z,38.50
2022-10-29T23:47:17.233Z,40.13
2022-10-29T23:49:45.293Z,40.83
2022-10-29T23:52:13.316Z,43.87
2022-10-29T23:54:41.472Z,40.20
2022-10-29T23:57:09.516Z,41.83
2022-10-29T23:59:37.575Z,41.57
